TimePST,TemperatureF,Dew PointF,Humidity,Sea Level PressureIn,VisibilityMPH,Wind Direction,Wind SpeedMPH,Gust SpeedMPH,PrecipitationIn,Events,Conditions,WindDirDegrees,DateUTC
6:00 AM,-41.8,-9999,N/A,30.00,4.0,Calm,Calm,-,N/A,,Clear,0,2012-12-11 14:00:00
7:00 AM,-40.0,-9999,N/A,29.99,4.0,Calm,Calm,-,N/A,,Clear,0,2012-12-11 15:00:00
8:00 AM,-40.0,-9999,N/A,29.99,8.0,Calm,Calm,-,N/A,Fog,Clear,0,2012-12-11 16:00:00
8:35 AM,-9999,-9999,N/A,-9999,8.0,Calm,Calm,-,N/A,Fog,Clear,0,2012-12-11 16:35:00
9:00 AM,-40.0,-9999,N/A,29.99,10.0,Calm,Calm,-,N/A,Fog,Clear,0,2012-12-11 17:00:00
10:00 AM,-40.0,-9999,N/A,29.99,20.0,Calm,Calm,-,N/A,Fog,Mostly Cloudy,0,2012-12-11 18:00:00
11:00 AM,-40.0,-9999,N/A,29.98,8.0,Calm,Calm,-,N/A,Fog,Mostly Cloudy,0,2012-12-11 19:00:00
12:00 PM,-34.6,-9999,N/A,29.97,8.0,Calm,Calm,-,N/A,Fog,Overcast,0,2012-12-11 20:00:00
12:50 PM,-9999,-9999,N/A,-9999,5.0,Calm,Calm,-,N/A,,Overcast,0,2012-12-11 20:50:00
1:00 PM,-34.6,-40.0,75,29.96,5.0,Calm,Calm,-,N/A,Snow,Light Snow,0,2012-12-11 21:00:00
1:11 PM,-9999,-9999,N/A,-9999,0.8,Calm,Calm,-,N/A,,Overcast,0,2012-12-11 21:11:00
1:22 PM,-9999,-9999,N/A,-9999,1.5,Calm,Calm,-,N/A,,Overcast,0,2012-12-11 21:22:00
1:46 PM,-9999,-9999,N/A,-9999,1.0,Calm,Calm,-,N/A,,Overcast,0,2012-12-11 21:46:00
2:00 PM,-32.8,-38.2,75,29.96,1.0,Calm,Calm,-,N/A,Snow,Light Snow,0,2012-12-11 22:00:00
2:18 PM,-9999,-9999,N/A,-9999,2.0,Calm,Calm,-,N/A,,Overcast,0,2012-12-11 22:18:00
2:36 PM,-9999,-9999,N/A,-9999,1.0,Calm,Calm,-,N/A,,Overcast,0,2012-12-11 22:36:00
3:00 PM,-29.2,-36.4,68,29.96,1.2,Calm,Calm,-,N/A,Snow,Light Snow,0,2012-12-11 23:00:00
3:19 PM,-9999,-9999,N/A,-9999,1.5,Calm,Calm,-,N/A,,Overcast,0,2012-12-11 23:19:00
4:00 PM,-27.4,-34.6,69,29.95,1.5,Calm,Calm,-,N/A,Snow,Light Snow,0,2012-12-12 00:00:00
4:28 PM,-9999,-9999,N/A,-9999,4.0,Calm,Calm,-,N/A,,Overcast,0,2012-12-12 00:28:00
5:00 PM,-25.6,-31.0,76,29.95,5.0,Calm,Calm,-,N/A,Snow,Light Snow,0,2012-12-12 01:00:00
6:00 PM,-23.8,-29.2,76,29.95,5.0,Calm,Calm,-,N/A,Snow,Light Snow,0,2012-12-12 02:00:00